MOL Maxim — V7TU3 — position and weather

sailwx.info

Track history (hours):
 
Tides and Currents Weather Stations Pressure Air Temp Water Temp Dewpoint Dewpoint Depression Visibility Wind Speed Wind Dir Waves Ship Positions

MOL Maxim

Last reported at 2018-Feb-10 18:37 UTC. Time now 2018-Feb-20 08:08 UTC.
Position N 38°31' W 124°05'.
Warning: this ship's position is 9 days out of date.

Length 302 m; draft 13.3 m.

Type: Ship (hazmat cat A). MMSI: 538003886.

Date/timePositionNaut miles runAvg speedWind from/ knotsBaromVisibWave heightAir tempDewpointWater temp
2018-Feb-10 18:37N 38°31' W 124°05'319.5
2018-Feb-10 18:29N 38°30' W 124°02'919.3
2018-Feb-10 18:00N 38°25' W 123°52'1019.3
2018-Feb-10 17:30N 38°20' W 123°42'1019.7
2018-Feb-10 17:00N 38°14' W 123°32'1019.8
2018-Feb-10 16:30N 38°09' W 123°21'1020.2
2018-Feb-10 16:00N 38°02' W 123°12'1019.4
2018-Feb-10 15:30N 37°56' W 123°02'1019.7
2018-Feb-10 15:00N 37°51' W 122°52'816.1
2018-Feb-10 14:30N 37°47' W 122°43'4 8.8
2018-Feb-10 14:00N 37°46' W 122°38'714.9
2018-Feb-10 13:30N 37°49' W 122°29'5 9.2
2018-Feb-10 13:00N 37°49' W 122°23'3 5.8
2018-Feb-10 12:31N 37°49' W 122°19'0 0.4
2018-Feb-10 12:01N 37°49' W 122°20'0 0.0
2018-Feb-10 11:29N 37°49' W 122°20'0 0.0
2018-Feb-10 10:59N 37°49' W 122°20'0 0.0
2018-Feb-10 10:29N 37°49' W 122°20'0 0.0
2018-Feb-10 09:59N 37°49' W 122°20'0 0.0
2018-Feb-10 09:29N 37°49' W 122°20'0 0.0
2018-Feb-10 08:59N 37°49' W 122°20'0 0.0
2018-Feb-10 08:29N 37°49' W 122°20'0 0.1
2018-Feb-10 07:59N 37°49' W 122°20'0 0.0
2018-Feb-10 07:29N 37°49' W 122°20'0 0.0
2018-Feb-10 06:59N 37°49' W 122°20'0 0.0
2018-Feb-10 06:29N 37°49' W 122°20'0 0.1
2018-Feb-10 05:59N 37°49' W 122°20'0 0.0
2018-Feb-10 05:29N 37°49' W 122°20'0 0.0
2018-Feb-10 04:59N 37°49' W 122°20'0 0.0
2018-Feb-10 04:29N 37°49' W 122°20'0 0.0
2018-Feb-10 03:59N 37°49' W 122°20'0 0.1
2018-Feb-10 03:29N 37°49' W 122°20'0 0.1
2018-Feb-10 02:59N 37°49' W 122°20'0 0.1
2018-Feb-10 02:29N 37°49' W 122°20'0 0.1
2018-Feb-10 01:59N 37°49' W 122°20'0 0.1
2018-Feb-10 01:29N 37°49' W 122°20'0 0.1
2018-Feb-10 00:59N 37°49' W 122°20'0 0.0
2018-Feb-10 00:29N 37°49' W 122°20'0 0.0
2018-Feb-09 23:56N 37°49' W 122°20'0 0.0
2018-Feb-09 23:26N 37°49' W 122°20'0 0.0
2018-Feb-09 22:59N 37°49' W 122°20'0 0.0
2018-Feb-09 22:44N 37°49' W 122°20'0 0.0
2018-Feb-09 00:30N 37°49' W 122°20'0 0.9
2018-Feb-09 00:00N 37°49' W 122°20'4 7.4
2018-Feb-08 23:30N 37°49' W 122°25'1313.3
2018-Feb-08 22:30N 37°45' W 122°41'5 9.2
2018-Feb-08 22:00N 37°40' W 122°40'5 9.2
2018-Feb-08 21:30N 37°36' W 122°40'611.7
2018-Feb-08 21:00N 37°30' W 122°40'2411.8
2018-Feb-08 19:00N 37°06' W 122°39'2412.2
2018-Feb-08 17:00N 36°44' W 122°28'15212.2
2018-Feb-08 04:30N 34°31' W 120°55'2411.9
2018-Feb-08 02:30N 34°22' W 120°29'1212.2
2018-Feb-08 01:30N 34°18' W 120°14'612.3
2018-Feb-08 00:59N 34°16' W 120°07'511.1
2018-Feb-08 00:30N 34°15' W 120°01'5 9.5
2018-Feb-08 00:00N 34°13' W 119°55'5 9.6
2018-Feb-07 23:30N 34°12' W 119°50'5 9.7
2018-Feb-07 23:00N 34°11' W 119°44'6 9.8
2018-Feb-07 22:26N 34°09' W 119°38'4 9.6
2018-Feb-07 22:00N 34°08' W 119°33'5 9.7
2018-Feb-07 21:31N 34°07' W 119°27'62 5.2
2018-Feb-07 09:28N 33°46' W 118°16'0 0.0
2018-Feb-07 08:58N 33°46' W 118°16'0 0.0
2018-Feb-07 08:28N 33°46' W 118°16'0 0.0
2018-Feb-07 07:58N 33°46' W 118°16'0 0.0
2018-Feb-07 07:28N 33°46' W 118°16'0 0.0
2018-Feb-07 06:58N 33°46' W 118°16'0 0.0
2018-Feb-07 06:28N 33°46' W 118°16'0 0.0
2018-Feb-07 05:58N 33°46' W 118°16'0 0.0
2018-Feb-07 05:28N 33°46' W 118°16'0 0.0
2018-Feb-07 04:58N 33°46' W 118°16'0 0.0
2018-Feb-07 04:28N 33°46' W 118°16'0 0.0
2018-Feb-07 03:58N 33°46' W 118°16'0 0.0
2018-Feb-07 03:28N 33°46' W 118°16'0 0.0
2018-Feb-07 02:58N 33°46' W 118°16'0 0.0
2018-Feb-07 02:28N 33°46' W 118°16'0 0.0
2018-Feb-07 01:58N 33°46' W 118°16'0 0.0
2018-Feb-07 01:28N 33°46' W 118°16'0 0.0
2018-Feb-07 00:58N 33°46' W 118°16'0 0.0
2018-Feb-07 00:28N 33°46' W 118°16'0 0.0
2018-Feb-06 23:58N 33°46' W 118°16'0 0.0
2018-Feb-06 23:28N 33°46' W 118°16'0 0.0
2018-Feb-06 22:55N 33°46' W 118°16'0 0.0
2018-Feb-06 22:25N 33°46' W 118°16'0 0.0
2018-Feb-06 21:58N 33°46' W 118°16'0 0.0
2018-Feb-06 21:28N 33°46' W 118°16'0 0.0
2018-Feb-06 20:58N 33°46' W 118°16'0 0.0
2018-Feb-06 20:28N 33°46' W 118°16'0 0.0
2018-Feb-06 19:58N 33°46' W 118°16'0 0.0
2018-Feb-06 19:28N 33°46' W 118°16'0 0.0
2018-Feb-06 18:58N 33°46' W 118°16'0 0.0
2018-Feb-06 18:28N 33°46' W 118°16'0 0.0
2018-Feb-06 17:58N 33°46' W 118°16'0 0.0
2018-Feb-06 17:28N 33°46' W 118°16'0 0.0
2018-Feb-06 16:58N 33°46' W 118°16'0 0.0
2018-Feb-06 16:28N 33°46' W 118°16'0 0.0
2018-Feb-06 15:58N 33°46' W 118°16'0 0.0
2018-Feb-06 15:28N 33°46' W 118°16'0 0.0
2018-Feb-06 14:58N 33°46' W 118°16'0 0.0
2018-Feb-06 14:28N 33°46' W 118°16'0 0.0
2018-Feb-06 13:58N 33°46' W 118°16'0 0.1
2018-Feb-06 13:30N 33°46' W 118°16'1 2.0
2018-Feb-06 13:00N 33°45' W 118°16'1 2.7
2018-Feb-06 12:30N 33°44' W 118°16'0 0.6
2018-Feb-06 12:00N 33°43' W 118°16'3 5.5
2018-Feb-06 11:30N 33°41' W 118°14'3 6.6
2018-Feb-06 11:00N 33°38' W 118°12'4 7.6
2018-Feb-06 10:26N 33°35' W 118°09'510.4
2018-Feb-06 09:55N 33°30' W 118°07'611.1
2018-Feb-06 09:21N 33°24' W 118°05'411.1
2018-Feb-06 09:00N 33°20' W 118°03'611.2
2018-Feb-06 08:30N 33°15' W 117°60'611.1
2018-Feb-06 08:00N 33°10' W 117°57'611.1
2018-Feb-06 07:29N 33°05' W 117°55'511.3
2018-Feb-06 07:00N 32°60' W 117°52'611.0
2018-Feb-06 06:30N 32°55' W 117°49'511.1
2018-Feb-06 06:00N 32°50' W 117°47'611.3
2018-Feb-06 05:30N 32°45' W 117°44'611.7
2018-Feb-06 05:00N 32°39' W 117°41'917.2
2018-Feb-06 04:30N 32°31' W 117°37'917.8
2018-Feb-06 04:00N 32°23' W 117°34'917.4
2018-Feb-06 03:30N 32°15' W 117°30'917.6
2018-Feb-06 02:59N 32°06' W 117°27'1817.8
2018-Feb-06 01:57N 31°48' W 117°20'817.8
2018-Feb-06 01:30N 31°41' W 117°17'5618.0
2018-Feb-05 22:23N 30°48' W 116°56'718.0
2018-Feb-05 22:00N 30°42' W 116°53'1018.1
2018-Feb-05 21:28N 30°32' W 116°50'918.3
2018-Feb-05 20:58N 30°24' W 116°46'1218.2
2018-Feb-05 20:18N 30°12' W 116°41'2017.8
2018-Feb-05 19:10N 29°53' W 116°34'317.4
2018-Feb-05 19:00N 29°51' W 116°32'1817.5
2018-Feb-05 17:59N 29°34' W 116°25'917.6
2018-Feb-05 17:29N 29°25' W 116°22'917.7
2018-Feb-05 16:57N 29°17' W 116°18'817.8
2018-Feb-05 16:30N 29°09' W 116°15'1018.8
2018-Feb-05 16:00N 29°00' W 116°12'918.1
2018-Feb-05 15:30N 28°52' W 116°09'917.8
2018-Feb-05 15:00N 28°43' W 116°05'2917.7
2018-Feb-05 13:20N 28°15' W 115°54'3117.6
2018-Feb-05 11:34N 27°50' W 115°35'317.7
2018-Feb-05 11:24N 27°47' W 115°32'717.8
2018-Feb-05 11:00N 27°41' W 115°28'3017.8
2018-Feb-05 09:20N 27°17' W 115°08'1317.8
2018-Feb-05 08:37N 27°07' W 114°60'  
Track history (hours):
 
Tides and Currents Weather Stations Pressure Air Temp Water Temp Dewpoint Dewpoint Depression Visibility Wind Speed Wind Dir Waves Ship Positions

MOL Maxim

Last reported at 2018-Feb-10 18:37 UTC. Time now 2018-Feb-20 08:08 UTC.
Position N 38°31' W 124°05'.
Warning: this ship's position is 9 days out of date.

Length 302 m; draft 13.3 m.

Type: Ship (hazmat cat A). MMSI: 538003886.

Date/timePositionNaut miles runAvg speedWind from/ knotsBaromVisibWave heightAir tempDewpointWater temp
2018-Feb-10 18:37N 38°31' W 124°05'319.5
2018-Feb-10 18:29N 38°30' W 124°02'919.3
2018-Feb-10 18:00N 38°25' W 123°52'1019.3
2018-Feb-10 17:30N 38°20' W 123°42'1019.7
2018-Feb-10 17:00N 38°14' W 123°32'1019.8
2018-Feb-10 16:30N 38°09' W 123°21'1020.2
2018-Feb-10 16:00N 38°02' W 123°12'1019.4
2018-Feb-10 15:30N 37°56' W 123°02'1019.7
2018-Feb-10 15:00N 37°51' W 122°52'816.1
2018-Feb-10 14:30N 37°47' W 122°43'4 8.8
2018-Feb-10 14:00N 37°46' W 122°38'714.9
2018-Feb-10 13:30N 37°49' W 122°29'5 9.2
2018-Feb-10 13:00N 37°49' W 122°23'3 5.8
2018-Feb-10 12:31N 37°49' W 122°19'0 0.4
2018-Feb-10 12:01N 37°49' W 122°20'0 0.0
2018-Feb-10 11:29N 37°49' W 122°20'0 0.0
2018-Feb-10 10:59N 37°49' W 122°20'0 0.0
2018-Feb-10 10:29N 37°49' W 122°20'0 0.0
2018-Feb-10 09:59N 37°49' W 122°20'0 0.0
2018-Feb-10 09:29N 37°49' W 122°20'0 0.0
2018-Feb-10 08:59N 37°49' W 122°20'0 0.0
2018-Feb-10 08:29N 37°49' W 122°20'0 0.1
2018-Feb-10 07:59N 37°49' W 122°20'0 0.0
2018-Feb-10 07:29N 37°49' W 122°20'0 0.0
2018-Feb-10 06:59N 37°49' W 122°20'0 0.0
2018-Feb-10 06:29N 37°49' W 122°20'0 0.1
2018-Feb-10 05:59N 37°49' W 122°20'0 0.0
2018-Feb-10 05:29N 37°49' W 122°20'0 0.0
2018-Feb-10 04:59N 37°49' W 122°20'0 0.0
2018-Feb-10 04:29N 37°49' W 122°20'0 0.0
2018-Feb-10 03:59N 37°49' W 122°20'0 0.1
2018-Feb-10 03:29N 37°49' W 122°20'0 0.1
2018-Feb-10 02:59N 37°49' W 122°20'0 0.1
2018-Feb-10 02:29N 37°49' W 122°20'0 0.1
2018-Feb-10 01:59N 37°49' W 122°20'0 0.1
2018-Feb-10 01:29N 37°49' W 122°20'0 0.1
2018-Feb-10 00:59N 37°49' W 122°20'0 0.0
2018-Feb-10 00:29N 37°49' W 122°20'0 0.0
2018-Feb-09 23:56N 37°49' W 122°20'0 0.0
2018-Feb-09 23:26N 37°49' W 122°20'0 0.0
2018-Feb-09 22:59N 37°49' W 122°20'0 0.0
2018-Feb-09 22:44N 37°49' W 122°20'0 0.0
2018-Feb-09 00:30N 37°49' W 122°20'0 0.9
2018-Feb-09 00:00N 37°49' W 122°20'4 7.4
2018-Feb-08 23:30N 37°49' W 122°25'1313.3
2018-Feb-08 22:30N 37°45' W 122°41'5 9.2
2018-Feb-08 22:00N 37°40' W 122°40'5 9.2
2018-Feb-08 21:30N 37°36' W 122°40'611.7
2018-Feb-08 21:00N 37°30' W 122°40'2411.8
2018-Feb-08 19:00N 37°06' W 122°39'2412.2
2018-Feb-08 17:00N 36°44' W 122°28'15212.2
2018-Feb-08 04:30N 34°31' W 120°55'2411.9
2018-Feb-08 02:30N 34°22' W 120°29'1212.2
2018-Feb-08 01:30N 34°18' W 120°14'612.3
2018-Feb-08 00:59N 34°16' W 120°07'511.1
2018-Feb-08 00:30N 34°15' W 120°01'5 9.5
2018-Feb-08 00:00N 34°13' W 119°55'5 9.6
2018-Feb-07 23:30N 34°12' W 119°50'5 9.7
2018-Feb-07 23:00N 34°11' W 119°44'6 9.8
2018-Feb-07 22:26N 34°09' W 119°38'4 9.6
2018-Feb-07 22:00N 34°08' W 119°33'5 9.7
2018-Feb-07 21:31N 34°07' W 119°27'62 5.2
2018-Feb-07 09:28N 33°46' W 118°16'0 0.0
2018-Feb-07 08:58N 33°46' W 118°16'0 0.0
2018-Feb-07 08:28N 33°46' W 118°16'0 0.0
2018-Feb-07 07:58N 33°46' W 118°16'0 0.0
2018-Feb-07 07:28N 33°46' W 118°16'0 0.0
2018-Feb-07 06:58N 33°46' W 118°16'0 0.0
2018-Feb-07 06:28N 33°46' W 118°16'0 0.0
2018-Feb-07 05:58N 33°46' W 118°16'0 0.0
2018-Feb-07 05:28N 33°46' W 118°16'0 0.0
2018-Feb-07 04:58N 33°46' W 118°16'0 0.0
2018-Feb-07 04:28N 33°46' W 118°16'0 0.0
2018-Feb-07 03:58N 33°46' W 118°16'0 0.0
2018-Feb-07 03:28N 33°46' W 118°16'0 0.0
2018-Feb-07 02:58N 33°46' W 118°16'0 0.0
2018-Feb-07 02:28N 33°46' W 118°16'0 0.0
2018-Feb-07 01:58N 33°46' W 118°16'0 0.0
2018-Feb-07 01:28N 33°46' W 118°16'0 0.0
2018-Feb-07 00:58N 33°46' W 118°16'0 0.0
2018-Feb-07 00:28N 33°46' W 118°16'0 0.0
2018-Feb-06 23:58N 33°46' W 118°16'0 0.0
2018-Feb-06 23:28N 33°46' W 118°16'0 0.0
2018-Feb-06 22:55N 33°46' W 118°16'0 0.0
2018-Feb-06 22:25N 33°46' W 118°16'0 0.0
2018-Feb-06 21:58N 33°46' W 118°16'0 0.0
2018-Feb-06 21:28N 33°46' W 118°16'0 0.0
2018-Feb-06 20:58N 33°46' W 118°16'0 0.0
2018-Feb-06 20:28N 33°46' W 118°16'0 0.0
2018-Feb-06 19:58N 33°46' W 118°16'0 0.0
2018-Feb-06 19:28N 33°46' W 118°16'0 0.0
2018-Feb-06 18:58N 33°46' W 118°16'0 0.0
2018-Feb-06 18:28N 33°46' W 118°16'0 0.0
2018-Feb-06 17:58N 33°46' W 118°16'0 0.0
2018-Feb-06 17:28N 33°46' W 118°16'0 0.0
2018-Feb-06 16:58N 33°46' W 118°16'0 0.0
2018-Feb-06 16:28N 33°46' W 118°16'0 0.0
2018-Feb-06 15:58N 33°46' W 118°16'0 0.0
2018-Feb-06 15:28N 33°46' W 118°16'0 0.0
2018-Feb-06 14:58N 33°46' W 118°16'0 0.0
2018-Feb-06 14:28N 33°46' W 118°16'0 0.0
2018-Feb-06 13:58N 33°46' W 118°16'0 0.1
2018-Feb-06 13:30N 33°46' W 118°16'1 2.0
2018-Feb-06 13:00N 33°45' W 118°16'1 2.7
2018-Feb-06 12:30N 33°44' W 118°16'0 0.6
2018-Feb-06 12:00N 33°43' W 118°16'3 5.5
2018-Feb-06 11:30N 33°41' W 118°14'3 6.6
2018-Feb-06 11:00N 33°38' W 118°12'4 7.6
2018-Feb-06 10:26N 33°35' W 118°09'510.4
2018-Feb-06 09:55N 33°30' W 118°07'611.1
2018-Feb-06 09:21N 33°24' W 118°05'411.1
2018-Feb-06 09:00N 33°20' W 118°03'611.2
2018-Feb-06 08:30N 33°15' W 117°60'611.1
2018-Feb-06 08:00N 33°10' W 117°57'611.1
2018-Feb-06 07:29N 33°05' W 117°55'511.3
2018-Feb-06 07:00N 32°60' W 117°52'611.0
2018-Feb-06 06:30N 32°55' W 117°49'511.1
2018-Feb-06 06:00N 32°50' W 117°47'611.3
2018-Feb-06 05:30N 32°45' W 117°44'611.7
2018-Feb-06 05:00N 32°39' W 117°41'917.2
2018-Feb-06 04:30N 32°31' W 117°37'917.8
2018-Feb-06 04:00N 32°23' W 117°34'917.4
2018-Feb-06 03:30N 32°15' W 117°30'917.6
2018-Feb-06 02:59N 32°06' W 117°27'1817.8
2018-Feb-06 01:57N 31°48' W 117°20'817.8
2018-Feb-06 01:30N 31°41' W 117°17'5618.0
2018-Feb-05 22:23N 30°48' W 116°56'718.0
2018-Feb-05 22:00N 30°42' W 116°53'1018.1
2018-Feb-05 21:28N 30°32' W 116°50'918.3
2018-Feb-05 20:58N 30°24' W 116°46'1218.2
2018-Feb-05 20:18N 30°12' W 116°41'2017.8
2018-Feb-05 19:10N 29°53' W 116°34'317.4
2018-Feb-05 19:00N 29°51' W 116°32'1817.5
2018-Feb-05 17:59N 29°34' W 116°25'917.6
2018-Feb-05 17:29N 29°25' W 116°22'917.7
2018-Feb-05 16:57N 29°17' W 116°18'817.8
2018-Feb-05 16:30N 29°09' W 116°15'1018.8
2018-Feb-05 16:00N 29°00' W 116°12'918.1
2018-Feb-05 15:30N 28°52' W 116°09'917.8
2018-Feb-05 15:00N 28°43' W 116°05'2917.7
2018-Feb-05 13:20N 28°15' W 115°54'3117.6
2018-Feb-05 11:34N 27°50' W 115°35'317.7
2018-Feb-05 11:24N 27°47' W 115°32'717.8
2018-Feb-05 11:00N 27°41' W 115°28'3017.8
2018-Feb-05 09:20N 27°17' W 115°08'1317.8
2018-Feb-05 08:37N 27°07' W 114°60'  

Dump ship's entire track history